createdAt,value
2018-05-23T00:02:12.638Z,74.71
2018-05-23T00:04:40.910Z,74.66
2018-05-23T00:07:09.202Z,75.96
2018-05-23T00:09:37.475Z,74.91
2018-05-23T00:12:05.828Z,74.82
2018-05-23T00:14:34.057Z,74.21
2018-05-23T00:17:02.356Z,74.29
2018-05-23T00:19:30.618Z,74.16
2018-05-23T00:21:58.897Z,74.80
2018-05-23T00:24:27.183Z,75.75
2018-05-23T00:26:55.458Z,76.30
2018-05-23T00:29:23.736Z,75.44
2018-05-23T00:31:51.998Z,75.42
2018-05-23T00:34:20.275Z,75.30
2018-05-23T00:36:48.658Z,74.91
2018-05-23T00:39:16.926Z,74.59
2018-05-23T00:41:45.255Z,74.89
2018-05-23T00:44:13.519Z,74.43
2018-05-23T00:46:41.790Z,74.56
2018-05-23T00:49:10.062Z,74.73
2018-05-23T00:51:38.341Z,74.08
2018-05-23T00:54:06.618Z,74.24
2018-05-23T00:56:34.890Z,74.33
2018-05-23T00:59:03.175Z,74.66
2018-05-23T01:01:32.115Z,74.90
2018-05-23T01:04:00.379Z,74.50
2018-05-23T01:06:28.655Z,75.14
2018-05-23T01:08:56.937Z,74.97
2018-05-23T01:11:25.229Z,75.08
2018-05-23T01:13:53.507Z,75.70
2018-05-23T01:16:21.790Z,74.93
2018-05-23T01:18:50.067Z,75.10
2018-05-23T01:21:18.358Z,75.67
2018-05-23T01:23:46.639Z,75.47
2018-05-23T01:26:14.910Z,76.16
2018-05-23T01:28:43.202Z,75.37
2018-05-23T01:31:11.478Z,74.78
2018-05-23T01:33:39.770Z,75.51
2018-05-23T01:36:08.046Z,75.67
2018-05-23T01:38:36.334Z,75.49
2018-05-23T01:41:04.618Z,75.31
2018-05-23T01:43:32.902Z,75.09
2018-05-23T01:46:01.198Z,75.36
2018-05-23T01:48:41.145Z,77.34
2018-05-23T01:51:09.438Z,76.37
2018-05-23T01:53:37.721Z,77.03
2018-05-23T01:56:06.111Z,76.99
2018-05-23T01:58:34.307Z,76.56
2018-05-23T02:01:02.634Z,76.16
2018-05-23T02:03:30.898Z,75.65
2018-05-23T02:05:59.182Z,75.44
2018-05-23T02:08:27.470Z,75.54
2018-05-23T02:10:55.753Z,75.26
2018-05-23T02:13:24.054Z,75.71
2018-05-23T02:15:52.333Z,75.05
2018-05-23T02:18:20.709Z,74.49
2018-05-23T02:20:48.997Z,75.91
2018-05-23T02:23:17.282Z,75.96
2018-05-23T02:25:45.578Z,76.79
2018-05-23T02:28:13.865Z,76.10
2018-05-23T02:30:42.146Z,76.68
2018-05-23T02:33:10.439Z,76.47
2018-05-23T02:35:38.723Z,76.29
2018-05-23T02:38:07.035Z,76.33
2018-05-23T02:40:35.327Z,76.32
2018-05-23T02:43:03.627Z,75.93
2018-05-23T02:45:31.928Z,76.02
2018-05-23T02:48:00.206Z,75.92
2018-05-23T02:50:28.510Z,77.67
2018-05-23T02:52:56.793Z,76.59
2018-05-23T02:55:25.071Z,77.18
2018-05-23T02:57:53.362Z,77.09
2018-05-23T03:00:21.650Z,76.38
2018-05-23T03:02:49.979Z,76.37
2018-05-23T03:05:18.240Z,76.53
2018-05-23T03:07:46.524Z,76.69
2018-05-23T03:10:14.812Z,76.08
2018-05-23T03:12:43.095Z,76.40
2018-05-23T03:15:11.403Z,76.74
2018-05-23T03:17:39.698Z,77.11
2018-05-23T03:20:07.999Z,76.55
2018-05-23T03:22:36.297Z,76.67
2018-05-23T03:25:04.578Z,76.12
2018-05-23T03:27:32.885Z,75.62
2018-05-23T03:30:01.166Z,76.59
2018-05-23T03:32:29.447Z,76.63
2018-05-23T03:34:57.814Z,75.98
2018-05-23T03:37:26.094Z,76.43
2018-05-23T03:39:55.110Z,76.29
2018-05-23T03:42:26.109Z,76.84
2018-05-23T03:44:54.403Z,76.33
2018-05-23T03:47:22.689Z,76.81
2018-05-23T03:49:50.974Z,76.46
2018-05-23T03:52:19.713Z,77.14
2018-05-23T03:54:47.996Z,76.36
2018-05-23T03:57:16.297Z,76.25
2018-05-23T03:59:56.354Z,76.37
2018-05-23T04:02:36.319Z,76.93
2018-05-23T04:05:16.624Z,76.71
2018-05-23T04:07:44.917Z,76.68
2018-05-23T04:10:13.202Z,76.73
2018-05-23T04:12:41.482Z,76.47
2018-05-23T04:15:09.767Z,76.29
2018-05-23T04:17:38.890Z,76.82
2018-05-23T04:20:07.370Z,77.19
2018-05-23T04:22:35.660Z,76.69
2018-05-23T04:25:03.947Z,76.91
2018-05-23T04:27:32.240Z,76.52
2018-05-23T04:30:00.525Z,76.68
2018-05-23T04:32:28.822Z,76.56
2018-05-23T04:34:57.101Z,76.85
2018-05-23T04:37:25.382Z,76.54
2018-05-23T04:39:53.677Z,76.59
2018-05-23T04:42:21.972Z,77.02
2018-05-23T04:44:50.274Z,76.22
2018-05-23T04:47:18.555Z,76.69
2018-05-23T04:49:46.834Z,76.71
2018-05-23T04:52:15.130Z,76.74
2018-05-23T04:54:43.627Z,76.83
2018-05-23T04:57:11.934Z,77.06
2018-05-23T04:59:40.230Z,76.41
2018-05-23T05:02:08.522Z,75.96
2018-05-23T05:04:36.805Z,75.96
2018-05-23T05:07:05.118Z,75.60
2018-05-23T05:09:33.418Z,76.31
2018-05-23T05:12:01.704Z,76.21
2018-05-23T05:14:29.995Z,75.81
2018-05-23T05:16:58.286Z,74.88
2018-05-23T05:19:26.588Z,75.23
2018-05-23T05:21:54.870Z,76.22
2018-05-23T05:24:23.154Z,76.39
2018-05-23T05:26:51.442Z,75.70
2018-05-23T05:29:19.759Z,75.74
2018-05-23T05:31:48.124Z,74.99
2018-05-23T05:34:16.343Z,74.92
2018-05-23T05:36:44.622Z,74.41
2018-05-23T05:39:12.902Z,74.91
2018-05-23T05:41:41.206Z,74.49
2018-05-23T05:44:09.528Z,74.34
2018-05-23T05:46:37.810Z,74.74
2018-05-23T05:49:06.116Z,74.52
2018-05-23T05:51:34.397Z,74.13
2018-05-23T05:54:02.694Z,73.95
2018-05-23T05:56:31.003Z,73.42
2018-05-23T05:58:59.282Z,74.16
2018-05-23T06:01:27.570Z,73.98
2018-05-23T06:03:56.766Z,73.72
2018-05-23T06:06:25.107Z,73.81
2018-05-23T06:08:53.351Z,73.58
2018-05-23T06:11:21.627Z,73.74
2018-05-23T06:13:49.921Z,73.26
2018-05-23T06:16:18.287Z,73.03
2018-05-23T06:18:46.590Z,73.02
2018-05-23T06:21:14.874Z,73.36
2018-05-23T06:23:43.178Z,73.41
2018-05-23T06:26:11.462Z,72.92
2018-05-23T06:28:39.742Z,72.67
2018-05-23T06:31:08.074Z,72.60
2018-05-23T06:33:36.398Z,72.44
2018-05-23T06:36:04.677Z,72.83
2018-05-23T06:38:32.973Z,73.23
2018-05-23T06:41:01.266Z,73.37
2018-05-23T06:43:29.658Z,73.56
2018-05-23T06:45:58.138Z,72.98
2018-05-23T06:48:26.391Z,73.10
2018-05-23T06:50:54.714Z,72.83
2018-05-23T06:53:23.020Z,72.54
2018-05-23T06:55:51.306Z,72.84
2018-05-23T06:58:19.634Z,72.91
2018-05-23T07:00:47.917Z,73.02
2018-05-23T07:03:16.259Z,73.01
2018-05-23T07:05:44.577Z,72.57
2018-05-23T07:08:12.876Z,72.37
2018-05-23T07:10:41.175Z,72.79
2018-05-23T07:13:09.454Z,72.87
2018-05-23T07:15:37.753Z,73.20
2018-05-23T07:18:06.077Z,73.72
2018-05-23T07:20:34.369Z,73.11
2018-05-23T07:23:02.646Z,72.69
2018-05-23T07:25:30.922Z,72.68
2018-05-23T07:27:59.227Z,71.61
2018-05-23T07:30:27.509Z,70.66
2018-05-23T07:32:55.817Z,70.23
2018-05-23T07:35:24.114Z,70.91
2018-05-23T07:37:52.398Z,69.87
2018-05-23T07:40:20.694Z,70.04
2018-05-23T07:42:48.982Z,70.00
2018-05-23T07:45:17.264Z,69.24
2018-05-23T07:47:45.546Z,70.36
2018-05-23T07:50:13.842Z,70.22
2018-05-23T07:52:42.165Z,70.07
2018-05-23T07:55:10.459Z,70.24
2018-05-23T07:57:38.770Z,69.04
2018-05-23T08:00:07.142Z,69.73
2018-05-23T08:02:35.446Z,69.10
2018-05-23T08:05:03.745Z,68.81
2018-05-23T08:07:32.042Z,68.92
2018-05-23T08:10:00.344Z,68.72
2018-05-23T08:12:28.659Z,68.79
2018-05-23T08:14:56.951Z,67.43
2018-05-23T08:17:25.261Z,67.67
2018-05-23T08:19:53.554Z,67.84
2018-05-23T08:22:21.881Z,65.81
2018-05-23T08:24:50.138Z,65.36
2018-05-23T08:27:18.447Z,65.51
2018-05-23T08:29:46.820Z,66.12
2018-05-23T08:32:15.023Z,65.87
2018-05-23T08:34:43.330Z,64.89
2018-05-23T08:37:11.618Z,63.53
2018-05-23T08:39:39.910Z,63.18
2018-05-23T08:42:08.197Z,63.43
2018-05-23T08:44:36.474Z,63.42
2018-05-23T08:47:04.776Z,61.42
2018-05-23T08:49:33.054Z,60.66
2018-05-23T08:52:01.995Z,60.91
2018-05-23T08:54:30.308Z,61.28
2018-05-23T08:56:58.578Z,61.64
2018-05-23T08:59:26.877Z,61.43
2018-05-23T09:01:55.156Z,62.31
2018-05-23T09:04:23.439Z,61.84
2018-05-23T09:06:52.410Z,61.51
2018-05-23T09:09:20.750Z,61.30
2018-05-23T09:11:49.030Z,61.57
2018-05-23T09:14:17.316Z,61.91
2018-05-23T09:16:45.597Z,61.85
2018-05-23T09:19:13.888Z,61.68
2018-05-23T09:21:42.175Z,60.61
2018-05-23T09:24:10.462Z,60.27
2018-05-23T09:26:38.746Z,60.25
2018-05-23T09:29:07.022Z,59.17
2018-05-23T09:31:35.364Z,59.88
2018-05-23T09:34:03.607Z,59.57
2018-05-23T09:36:31.917Z,58.52
2018-05-23T09:39:00.199Z,57.82
2018-05-23T09:41:28.482Z,58.45
2018-05-23T09:43:56.778Z,58.06
2018-05-23T09:46:25.058Z,59.40
2018-05-23T09:48:53.366Z,59.17
2018-05-23T09:51:21.678Z,59.70
2018-05-23T09:53:49.965Z,59.43
2018-05-23T09:56:18.260Z,59.92
2018-05-23T09:58:46.538Z,59.66
2018-05-23T10:01:14.839Z,59.62
2018-05-23T10:03:43.113Z,58.89
2018-05-23T10:06:11.406Z,59.30
2018-05-23T10:08:39.708Z,59.62
2018-05-23T10:11:07.986Z,59.86
2018-05-23T10:13:36.294Z,60.14
2018-05-23T10:16:04.580Z,61.07
2018-05-23T10:18:33.633Z,61.20
2018-05-23T10:21:01.931Z,60.72
2018-05-23T10:23:30.194Z,60.71
2018-05-23T10:25:58.510Z,59.87
2018-05-23T10:28:26.784Z,61.65
2018-05-23T10:30:55.065Z,60.19
2018-05-23T10:33:23.445Z,63.25
2018-05-23T10:35:51.650Z,61.03
2018-05-23T10:38:19.942Z,60.90
2018-05-23T10:40:48.262Z,59.38
2018-05-23T10:43:16.541Z,60.01
2018-05-23T10:45:44.818Z,62.28
2018-05-23T10:48:13.090Z,63.65
2018-05-23T10:50:41.390Z,63.21
2018-05-23T10:53:09.666Z,63.29
2018-05-23T10:55:37.954Z,64.33
2018-05-23T10:58:06.247Z,64.54
2018-05-23T11:00:34.531Z,63.96
2018-05-23T11:03:02.923Z,65.13
2018-05-23T11:05:31.104Z,63.83
2018-05-23T11:07:59.370Z,62.97
2018-05-23T11:10:27.669Z,63.56
2018-05-23T11:12:55.942Z,62.26
2018-05-23T11:15:24.240Z,63.26
2018-05-23T11:17:52.529Z,64.24
2018-05-23T11:20:20.803Z,63.70
2018-05-23T11:22:49.814Z,64.62
2018-05-23T11:25:18.090Z,64.41
2018-05-23T11:27:46.383Z,63.94
2018-05-23T11:30:14.664Z,63.84
2018-05-23T11:32:42.954Z,62.37
2018-05-23T11:35:11.246Z,63.00
2018-05-23T11:37:39.517Z,61.07
2018-05-23T11:40:07.810Z,61.20
2018-05-23T11:45:03.410Z,62.05
2018-05-23T11:47:31.694Z,59.84
2018-05-23T11:50:00.006Z,60.27
2018-05-23T11:52:28.302Z,61.52
2018-05-23T11:54:56.570Z,60.53
2018-05-23T11:57:24.880Z,60.18
2018-05-23T11:59:53.169Z,58.42
2018-05-23T12:02:21.446Z,59.28
2018-05-23T12:04:49.861Z,59.98
2018-05-23T12:07:18.131Z,59.09
2018-05-23T12:09:47.268Z,59.47
2018-05-23T12:12:15.563Z,59.48
2018-05-23T12:14:43.845Z,58.90
2018-05-23T12:17:12.198Z,59.21
2018-05-23T12:19:40.497Z,59.87
2018-05-23T12:22:08.762Z,60.67
2018-05-23T12:24:37.038Z,60.35
2018-05-23T12:27:05.361Z,61.07
2018-05-23T12:29:33.651Z,60.45
2018-05-23T12:32:01.930Z,61.45
2018-05-23T12:34:30.222Z,62.29
2018-05-23T12:36:58.524Z,62.34
2018-05-23T12:39:26.779Z,61.06
2018-05-23T12:41:55.054Z,60.60
2018-05-23T12:44:23.338Z,61.52
2018-05-23T12:46:51.609Z,62.55
2018-05-23T12:49:19.902Z,60.68
2018-05-23T12:51:48.174Z,58.08
2018-05-23T12:54:16.447Z,58.05
2018-05-23T12:56:44.726Z,57.40
2018-05-23T12:59:13.001Z,60.51
2018-05-23T13:01:41.290Z,60.82
2018-05-23T13:04:09.566Z,60.32
2018-05-23T13:06:37.842Z,60.79
2018-05-23T13:09:07.837Z,61.03
2018-05-23T13:11:36.138Z,61.37
2018-05-23T13:14:04.438Z,61.61
2018-05-23T13:16:32.716Z,59.98
2018-05-23T13:19:01.078Z,60.36
2018-05-23T13:21:29.280Z,59.19
2018-05-23T13:23:57.574Z,61.03
2018-05-23T13:26:25.858Z,60.68
2018-05-23T13:28:54.139Z,60.66
2018-05-23T13:31:23.198Z,59.83
2018-05-23T13:33:51.481Z,58.79
2018-05-23T13:36:19.754Z,58.85
2018-05-23T13:38:49.220Z,59.17
2018-05-23T13:41:17.440Z,58.69
2018-05-23T13:43:45.709Z,59.28
2018-05-23T13:46:13.986Z,58.98
2018-05-23T13:48:42.258Z,58.92
2018-05-23T13:51:10.551Z,59.14
2018-05-23T13:53:38.823Z,59.34
2018-05-23T13:56:07.090Z,59.71
2018-05-23T13:58:35.404Z,59.94
2018-05-23T14:01:03.684Z,58.94
2018-05-23T14:03:31.966Z,58.34
2018-05-23T14:06:00.234Z,58.53
2018-05-23T14:08:39.395Z,58.69
2018-05-23T14:11:07.681Z,58.66
2018-05-23T14:13:35.945Z,58.72
2018-05-23T14:16:04.222Z,58.35
2018-05-23T14:18:32.494Z,58.51
2018-05-23T14:21:01.058Z,58.82
2018-05-23T14:23:29.329Z,58.74
2018-05-23T14:25:57.624Z,57.40
2018-05-23T14:28:26.843Z,58.56
2018-05-23T14:30:55.028Z,57.56
2018-05-23T14:33:23.326Z,56.37
2018-05-23T14:35:51.643Z,56.32
2018-05-23T14:38:19.894Z,57.11
2018-05-23T14:40:48.186Z,55.14
2018-05-23T14:43:16.466Z,55.49
2018-05-23T14:45:45.077Z,55.23
2018-05-23T14:48:13.345Z,56.93
2018-05-23T14:50:41.618Z,57.31
2018-05-23T14:53:09.898Z,56.94
2018-05-23T14:55:38.198Z,56.03
2018-05-23T14:58:06.481Z,56.34
2018-05-23T15:00:34.758Z,57.24
2018-05-23T15:03:03.400Z,56.55
2018-05-23T15:05:31.670Z,56.32
2018-05-23T15:07:59.946Z,56.64
2018-05-23T15:10:28.843Z,56.23
2018-05-23T15:12:57.109Z,56.17
2018-05-23T15:15:25.458Z,56.42
2018-05-23T15:17:53.742Z,56.49
2018-05-23T15:20:22.014Z,56.53
2018-05-23T15:22:50.310Z,55.21
2018-05-23T15:25:18.594Z,57.07
2018-05-23T15:27:46.874Z,55.87
2018-05-23T15:30:15.163Z,54.99
2018-05-23T15:32:43.450Z,54.31
2018-05-23T15:35:11.820Z,54.87
2018-05-23T15:37:40.123Z,54.17
2018-05-23T15:40:08.388Z,54.31
2018-05-23T15:42:36.672Z,54.40
2018-05-23T15:45:04.954Z,53.96
2018-05-23T15:47:33.234Z,54.06
2018-05-23T15:50:01.511Z,53.87
2018-05-23T15:52:29.781Z,54.19
2018-05-23T15:54:58.058Z,53.97
2018-05-23T15:57:26.335Z,55.77
2018-05-23T15:59:54.633Z,55.50
2018-05-23T16:02:22.901Z,55.13
2018-05-23T16:04:51.201Z,55.26
2018-05-23T16:07:19.478Z,54.69
2018-05-23T16:09:47.755Z,55.63
2018-05-23T16:12:16.033Z,54.89
2018-05-23T16:14:44.313Z,54.48
2018-05-23T16:17:12.582Z,54.91
2018-05-23T16:19:40.872Z,54.37
2018-05-23T16:22:09.150Z,53.49
2018-05-23T16:24:37.512Z,53.44
2018-05-23T16:27:05.722Z,53.76
2018-05-23T16:29:34.002Z,52.14
2018-05-23T16:32:02.289Z,51.20
2018-05-23T16:34:30.562Z,53.15
2018-05-23T16:36:58.853Z,54.25
2018-05-23T16:39:27.122Z,53.56
2018-05-23T16:41:55.390Z,52.93
2018-05-23T16:44:23.761Z,53.61
2018-05-23T16:46:51.995Z,55.13
2018-05-23T16:49:21.322Z,55.75
2018-05-23T16:51:49.629Z,50.51
2018-05-23T16:54:17.953Z,48.73
2018-05-23T16:56:46.251Z,47.60
2018-05-23T16:59:14.523Z,46.91
2018-05-23T17:01:42.822Z,47.52
2018-05-23T17:04:11.108Z,45.92
2018-05-23T17:06:39.393Z,45.06
2018-05-23T17:09:08.650Z,45.49
2018-05-23T17:11:36.924Z,44.80
2018-05-23T17:14:05.226Z,45.06
2018-05-23T17:16:33.506Z,46.00
2018-05-23T17:19:01.779Z,45.95
2018-05-23T17:21:30.054Z,45.34
2018-05-23T17:23:58.419Z,44.97
2018-05-23T17:26:26.670Z,46.11
2018-05-23T17:28:54.941Z,46.15
2018-05-23T17:31:23.225Z,47.04
2018-05-23T17:33:51.506Z,46.38
2018-05-23T17:36:19.782Z,45.25
2018-05-23T17:38:48.070Z,46.54
2018-05-23T17:41:16.603Z,45.25
2018-05-23T17:43:44.871Z,45.82
2018-05-23T17:46:13.161Z,46.48
2018-05-23T17:48:41.429Z,46.80
2018-05-23T17:51:09.741Z,45.96
2018-05-23T17:53:38.022Z,45.76
2018-05-23T17:56:06.305Z,45.89
2018-05-23T17:58:34.601Z,46.58
2018-05-23T18:01:02.858Z,45.54
2018-05-23T18:03:31.145Z,46.04
2018-05-23T18:05:59.443Z,46.57
2018-05-23T18:08:27.694Z,47.28
2018-05-23T18:10:55.988Z,47.20
2018-05-23T18:13:24.268Z,47.20
2018-05-23T18:15:52.581Z,47.77
2018-05-23T18:18:22.132Z,47.76
2018-05-23T18:20:50.422Z,48.43
2018-05-23T18:23:18.838Z,48.31
2018-05-23T18:25:47.070Z,48.79
2018-05-23T18:28:15.444Z,48.78
2018-05-23T18:30:43.642Z,49.36
2018-05-23T18:33:11.919Z,49.39
2018-05-23T18:35:40.210Z,48.91
2018-05-23T18:38:08.487Z,49.51
2018-05-23T18:40:36.778Z,50.18
2018-05-23T18:43:05.042Z,49.89
2018-05-23T18:45:33.310Z,50.67
2018-05-23T18:48:01.609Z,50.56
2018-05-23T18:50:29.909Z,50.94
2018-05-23T18:52:58.197Z,50.95
2018-05-23T18:55:26.469Z,50.33
2018-05-23T18:57:54.760Z,50.61
2018-05-23T19:00:23.061Z,51.39
2018-05-23T19:02:51.326Z,51.22
2018-05-23T19:05:19.676Z,52.55
2018-05-23T19:07:47.905Z,52.79
2018-05-23T19:10:16.178Z,53.27
2018-05-23T19:12:44.466Z,53.14
2018-05-23T19:15:12.739Z,53.58
2018-05-23T19:17:41.080Z,53.80
2018-05-23T19:20:09.373Z,54.30
2018-05-23T19:22:37.615Z,55.13
2018-05-23T19:25:05.901Z,55.16
2018-05-23T19:27:34.168Z,55.02
2018-05-23T19:30:02.457Z,55.28
2018-05-23T19:32:30.726Z,55.32
2018-05-23T19:34:58.998Z,54.30
2018-05-23T19:37:27.289Z,53.95
2018-05-23T19:39:55.562Z,55.82
2018-05-23T19:42:24.393Z,55.39
2018-05-23T19:44:52.669Z,55.13
2018-05-23T19:47:21.006Z,54.43
2018-05-23T19:49:49.242Z,53.92
2018-05-23T19:52:17.515Z,55.05
2018-05-23T19:54:45.790Z,55.11
2018-05-23T19:57:14.063Z,55.60
2018-05-23T19:59:42.335Z,54.50
2018-05-23T20:02:10.631Z,54.82
2018-05-23T20:04:38.885Z,54.98
2018-05-23T20:07:07.168Z,55.17
2018-05-23T20:09:35.434Z,55.17
2018-05-23T20:12:03.702Z,56.05
2018-05-23T20:14:32.073Z,56.78
2018-05-23T20:17:00.259Z,56.80
2018-05-23T20:19:28.553Z,56.80
2018-05-23T20:21:56.899Z,56.52
2018-05-23T20:24:25.090Z,56.76
2018-05-23T20:26:53.379Z,57.89
2018-05-23T20:29:21.671Z,57.24
2018-05-23T20:31:49.978Z,57.68
2018-05-23T20:34:18.254Z,58.18
2018-05-23T20:36:46.519Z,58.38
2018-05-23T20:39:14.798Z,58.72
2018-05-23T20:41:43.072Z,58.78
2018-05-23T20:46:48.662Z,58.67
2018-05-23T20:49:16.958Z,58.84
2018-05-23T20:51:45.233Z,59.72
2018-05-23T20:54:13.513Z,60.15
2018-05-23T20:56:41.797Z,61.29
2018-05-23T20:59:10.078Z,61.15
2018-05-23T21:01:38.433Z,61.91
2018-05-23T21:04:06.706Z,63.16
2018-05-23T21:06:34.982Z,62.55
2018-05-23T21:09:03.262Z,62.54
2018-05-23T21:11:37.129Z,63.08
2018-05-23T21:14:05.400Z,62.24
2018-05-23T21:16:33.966Z,62.07
2018-05-23T21:19:02.239Z,62.76
2018-05-23T21:21:30.522Z,62.43
2018-05-23T21:23:58.795Z,61.52
2018-05-23T21:26:27.086Z,62.17
2018-05-23T21:28:55.355Z,62.11
2018-05-23T21:31:23.617Z,62.41
2018-05-23T21:33:51.897Z,63.05
2018-05-23T21:36:20.254Z,64.15
2018-05-23T21:38:48.554Z,63.98
2018-05-23T21:41:16.830Z,63.83
2018-05-23T21:43:45.102Z,64.50
2018-05-23T21:46:13.387Z,63.67
2018-05-23T21:48:41.658Z,63.61
2018-05-23T21:51:09.958Z,63.55
2018-05-23T21:53:38.226Z,64.12
2018-05-23T21:56:06.505Z,64.47
2018-05-23T21:58:34.781Z,65.36
2018-05-23T22:01:03.054Z,65.73
2018-05-23T22:03:31.342Z,64.65
2018-05-23T22:05:59.609Z,65.30
2018-05-23T22:08:27.881Z,65.15
2018-05-23T22:10:56.153Z,64.62
2018-05-23T22:13:24.529Z,65.83
2018-05-23T22:15:52.818Z,64.99
2018-05-23T22:18:21.181Z,65.69
2018-05-23T22:20:49.353Z,66.20
2018-05-23T22:23:17.638Z,65.94
2018-05-23T22:25:45.910Z,65.70
2018-05-23T22:28:15.026Z,65.71
2018-05-23T22:30:43.333Z,66.92
2018-05-23T22:33:11.570Z,66.68
2018-05-23T22:35:39.853Z,68.17
2018-05-23T22:38:08.118Z,67.85
2018-05-23T22:40:36.402Z,66.98
2018-05-23T22:43:04.674Z,67.48
2018-05-23T22:45:32.947Z,66.59
2018-05-23T22:48:01.243Z,67.79
2018-05-23T22:50:29.509Z,67.54
2018-05-23T22:52:57.797Z,66.67
2018-05-23T22:55:26.070Z,67.32
2018-05-23T22:57:54.346Z,67.35
2018-05-23T23:00:22.642Z,67.51
2018-05-23T23:02:50.631Z,66.76
2018-05-23T23:05:18.939Z,68.71
2018-05-23T23:07:47.214Z,69.32
2018-05-23T23:10:15.489Z,69.05
2018-05-23T23:12:43.793Z,68.81
2018-05-23T23:15:12.099Z,68.80
2018-05-23T23:17:41.238Z,68.49
2018-05-23T23:20:09.521Z,68.66
2018-05-23T23:22:38.586Z,68.25
2018-05-23T23:25:06.870Z,68.12
2018-05-23T23:27:35.142Z,68.38
2018-05-23T23:30:03.433Z,68.17
2018-05-23T23:32:31.711Z,68.70
2018-05-23T23:34:59.990Z,68.22
2018-05-23T23:37:28.276Z,67.54
2018-05-23T23:39:56.544Z,68.28
2018-05-23T23:42:24.834Z,68.47
2018-05-23T23:44:53.115Z,68.54
2018-05-23T23:47:21.382Z,68.04
2018-05-23T23:49:49.658Z,68.42
2018-05-23T23:52:18.238Z,68.10
2018-05-23T23:54:46.515Z,68.22
2018-05-23T23:57:14.791Z,68.61
2018-05-23T23:59:45.002Z,69.45
